Harwinton, CT (06791)

4:54 AM EST on December 03, 2016 (GMT -0500)
Wildcat Hill | | Change Station

Elev 1024 ft 41.75 °N, 73.09 °W | Updated 15 seconds ago

Overcast
Overcast
36.5 °F
Feels Like 36 °F
N
2.0
Wind Variable Wind from South
Gusts 2.5 mph

Today
High -- | Low -- °F
--% Chance of Precip.
Yesterday
High -- | Low -- °F
Precip. -- in
Pressure 29.88 in
Visibility 10.0 miles
Clouds Scattered Clouds 3500 ft
Overcast 4600 ft
Windchill 36 °F
Dew Point 24 °F
Humidity 59%
Rainfall 0.00 in
Snow Depth Not available.
7:02 AM 4:21 PM
Waxing Crescent, 14% visible
METAR KOXC 030935Z 29003KT 10SM SCT035 OVC046 03/M03 A2988 RMK AO1
Pressure 29.88 in
Visibility 10.0 miles
Clouds Scattered Clouds 3500 ft
Overcast 4600 ft
Windchill 36 °F
Dew Point 24 °F
Humidity 59%
Rainfall 0.00 in
Snow Depth Not available.
7:02 AM 4:21 PM
Waxing Crescent, 14% visible
METAR KOXC 030935Z 29003KT 10SM SCT035 OVC046 03/M03 A2988 RMK AO1

10-Day Weather Forecast

Almanac

Astronomy

Dec. 03, 2016 Rise Set
Actual Time
Civil Twilight
Nautical Twilight
Astronomical Twilight
Moon
Length of Visible Light
Length of Day
Tomorrow will be .
, % of the Moon is Illuminated

Today's Extremes

State Highs State Lows

Community

WunderPhotos

Upload Photos

1,955,434 photos uploaded!

WunderBlog® & News

Nearby

Air Quality

  Air Quality AQ Index Pollutant
Not available.

Snow Depth

Station Depth Elevation

Earthquake Activity

City Distance Mag. Time & Date
Minimum magnitude displayed is 2.5.

Coastal Water Temperatures

Place Temperature

Stations

Nearby Weather Stations

Station Location Temp. Windchill Dew Point Humidity Wind Precip. Elev Updated Type
                   

Watches & Warnings

There are currently no watches in effect.